Time;durP1;ratioP1;P1;durP2;ratioP2;P2;SDS_P1;SDS_P2;PMS_P1;PMS_P2;Temp;Humidity;BMP_temperature;BMP_pressure;BME280_temperature;BME280_humidity;BME280_pressure;Samples;Min_cycle;Max_cycle;Signal;HPM_P1;HPM_P2
2022/01/21 00:01:17;;;;;;;;;;;;;;;8.25;65.25;103591.41;7357091;19;19940;-60
2022/01/21 00:03:42;;;;;;;;;;;;;;;8.26;65.07;103593.16;7353739;19;19923;-59
2022/01/21 00:06:08;;;;;;;;;;;;;;;8.26;65.19;103593.16;7363760;19;19926;-61
2022/01/21 00:08:34;;;;;;;;;;;;;;;8.25;65.01;103596.59;7365317;19;19930;-60
2022/01/21 00:10:59;;;;;;;;;;;;;;;8.26;65.28;103598.38;7367433;19;19957;-61
2022/01/21 00:13:33;;;;;;;;;;;;;;;8.25;65.21;103581.00;7359128;19;19915;-60
2022/01/21 00:16:03;;;;;;;;;;;;;;;8.26;65.07;103587.97;7356146;19;20336;-60
2022/01/21 00:18:28;;;;;;;;;;;;;;;8.26;65.07;103588.88;7351448;19;19911;-61
2022/01/21 00:31:49;;;;;;;;;;;;;;;8.26;65.36;103581.06;7358326;19;19930;-61
2022/01/21 00:34:14;;;;;;;;;;;;;;;8.27;65.05;103589.75;7352390;19;19919;-60
2022/01/21 00:36:39;;;;;;;;;;;;;;;8.26;65.08;103590.56;7340279;19;19931;-60
2022/01/21 00:39:05;;;;;;;;;;;;;;;8.25;65.01;103596.59;7350588;19;19918;-60
2022/01/21 00:41:34;;;;;;;;;;;;;;;8.26;65.09;103593.16;7353029;19;20018;-61
2022/01/21 00:44:00;;;;;;;;;;;;;;;8.27;65.42;103589.75;7354965;19;19958;-61
2022/01/21 00:46:25;;;;;;;;;;;;;;;8.27;65.09;103594.97;7351602;19;20514;-60
2022/01/21 00:48:50;;;;;;;;;;;;;;;8.27;65.19;103594.97;7360176;19;19947;-60
2022/01/21 00:51:16;;;;;;;;;;;;;;;8.27;65.51;103594.97;7359036;19;19919;-60
2022/01/21 00:53:41;;;;;;;;;;;;;;;8.27;65.25;103594.97;7358354;19;19915;-60
2022/01/21 00:56:06;;;;;;;;;;;;;;;8.27;65.21;103588.03;7360551;19;19918;-60
2022/01/21 00:58:32;;;;;;;;;;;;;;;8.26;65.13;103573.25;7361794;19;19971;-60
2022/01/21 01:00:57;;;;;;;;;;;;;;;8.26;65.38;103567.13;7370348;19;19911;-59
2022/01/21 01:03:22;;;;;;;;;;;;;;;8.27;65.40;103574.13;7368668;19;19919;-61
2022/01/21 01:05:49;;;;;;;;;;;;;;;8.25;65.53;103574.06;7371115;19;19927;-60
2022/01/21 01:08:15;;;;;;;;;;;;;;;8.26;65.03;103567.13;7364892;19;19925;-60
2022/01/21 01:21:20;;;;;;;;;;;;;;;8.26;65.04;103556.72;7358938;19;20001;-59
2022/01/21 01:27:34;;;;;;;;;;;;;;;8.25;65.47;103557.56;7361243;19;20010;-60
2022/01/21 01:29:30;;;;;;;;;;;;;;;8.23;65.02;103557.53;7362619;19;20005;-60
2022/01/21 01:31:55;;;;;;;;;;;;;;;8.24;65.49;103558.41;7357137;19;19923;-61
2022/01/21 01:34:20;;;;;;;;;;;;;;;8.24;65.34;103553.19;7360744;19;20454;-61
2022/01/21 01:36:47;;;;;;;;;;;;;;;8.23;65.27;103539.28;7356428;19;19956;-60
2022/01/21 01:39:32;;;;;;;;;;;;;;;8.22;65.13;103540.13;7358821;19;19923;-61
2022/01/21 01:49:59;;;;;;;;;;;;;;;8.20;65.09;103531.38;7371948;19;20002;-60
2022/01/21 01:52:25;;;;;;;;;;;;;;;8.21;65.22;103537.47;7371644;19;20593;-60
2022/01/21 01:54:52;;;;;;;;;;;;;;;8.21;65.04;103532.25;7371149;19;19911;-60
2022/01/21 01:57:17;;;;;;;;;;;;;;;8.21;65.35;103525.38;7361190;19;19919;-60
2022/01/21 01:59:43;;;;;;;;;;;;;;;8.21;65.34;103530.56;7366462;19;19931;-61
2022/01/21 02:02:10;;;;;;;;;;;;;;;8.21;65.30;103527.97;7354637;19;19926;-60
2022/01/21 02:04:35;;;;;;;;;;;;;;;8.20;65.13;103527.91;7361093;19;19907;-60
2022/01/21 02:07:00;;;;;;;;;;;;;;;8.21;65.30;103527.06;7326185;19;28007;-60
2022/01/21 02:09:27;;;;;;;;;;;;;;;8.20;65.41;103525.28;1106571;19;10002234;-60
2022/01/21 02:11:52;;;;;;;;;;;;;;;8.21;65.56;103522.75;7364642;19;19911;-61
2022/01/21 02:14:25;;;;;;;;;;;;;;;8.22;65.32;103518.44;7361030;19;20026;-60
2022/01/21 02:22:13;;;;;;;;;;;;;;;8.21;65.23;103524.44;7361140;19;20378;-60
2022/01/21 02:25:00;;;;;;;;;;;;;;;8.22;65.28;103531.44;7366534;19;19927;-60
2022/01/21 02:27:25;;;;;;;;;;;;;;;8.22;65.24;103534.06;7253754;19;2004383;-61
2022/01/21 02:29:54;;;;;;;;;;;;;;;8.21;65.42;103532.25;7360230;19;19960;-60
2022/01/21 02:32:20;;;;;;;;;;;;;;;8.22;65.46;103528.84;7364882;19;19959;-60
2022/01/21 02:34:46;;;;;;;;;;;;;;;8.21;65.40;103538.38;7359144;19;20450;-60
2022/01/21 02:37:14;;;;;;;;;;;;;;;8.21;65.04;103535.78;7364624;19;19939;-60
2022/01/21 02:39:39;;;;;;;;;;;;;;;8.19;65.06;103533.94;7370171;19;20360;-60
2022/01/21 02:42:05;;;;;;;;;;;;;;;8.21;65.13;103537.47;7372276;19;19929;-60
2022/01/21 02:44:31;;;;;;;;;;;;;;;8.20;65.10;103535.69;7369400;19;19918;-60
2022/01/21 02:46:59;;;;;;;;;;;;;;;8.19;65.11;103534.81;7367483;19;19930;-60
2022/01/21 02:49:25;;;;;;;;;;;;;;;8.21;65.31;103537.47;7361560;19;20398;-61
2022/01/21 02:51:52;;;;;;;;;;;;;;;8.21;65.45;103538.38;7362092;19;19911;-60
2022/01/21 02:54:17;;;;;;;;;;;;;;;8.22;65.12;103539.25;7358356;19;20705;-60
2022/01/21 02:56:42;;;;;;;;;;;;;;;8.20;65.35;103540.91;7358855;19;20014;-60
2022/01/21 02:59:09;;;;;;;;;;;;;;;8.21;64.98;103548.78;7344794;19;19911;-60
2022/01/21 03:01:35;;;;;;;;;;;;;;;8.19;65.02;103544.34;7368153;19;19939;-61
2022/01/21 03:04:02;;;;;;;;;;;;;;;8.19;65.22;103540.03;7354747;19;19986;-61
2022/01/21 03:06:28;;;;;;;;;;;;;;;8.21;65.11;103542.66;7361506;19;19914;-60
2022/01/21 03:08:54;;;;;;;;;;;;;;;8.21;64.88;103542.66;7357796;19;19923;-61
2022/01/21 03:11:21;;;;;;;;;;;;;;;8.21;65.17;103543.59;7362651;19;19919;-60
2022/01/21 03:13:46;;;;;;;;;;;;;;;8.20;65.34;103540.91;7363114;19;19934;-61
2022/01/21 03:16:12;;;;;;;;;;;;;;;8.18;65.27;103540.88;7365237;19;19910;-60
2022/01/21 03:18:37;;;;;;;;;;;;;;;8.20;65.01;103546.13;7364794;19;19943;-61
2022/01/21 03:21:03;;;;;;;;;;;;;;;8.18;65.12;103537.38;7357942;19;19923;-60
2022/01/21 03:23:29;;;;;;;;;;;;;;;8.19;65.09;103539.16;7362607;19;19915;-60
2022/01/21 03:25:55;;;;;;;;;;;;;;;8.18;65.09;103534.78;7360892;19;19915;-60
2022/01/21 03:28:20;;;;;;;;;;;;;;;8.18;65.19;103538.25;7371675;19;19945;-60
2022/01/21 03:30:46;;;;;;;;;;;;;;;8.18;65.09;103532.19;7367664;19;19922;-60
2022/01/21 03:33:11;;;;;;;;;;;;;;;8.17;65.21;103533.03;7368451;19;19919;-60
2022/01/21 03:35:37;;;;;;;;;;;;;;;8.16;65.27;103536.44;7365133;19;19979;-60
2022/01/21 03:38:03;;;;;;;;;;;;;;;8.15;65.33;103526.84;7361766;19;19925;-61
2022/01/21 03:40:28;;;;;;;;;;;;;;;8.13;65.32;103521.63;7363834;19;20274;-61
2022/01/21 03:42:53;;;;;;;;;;;;;;;8.14;64.87;103531.19;7363002;19;20353;-60
2022/01/21 03:45:18;;;;;;;;;;;;;;;8.13;65.44;103528.53;7361410;19;19938;-60
2022/01/21 03:47:44;;;;;;;;;;;;;;;8.12;65.18;103531.97;7361470;19;20563;-60
2022/01/21 03:50:30;;;;;;;;;;;;;;;8.12;65.00;103529.38;7361566;19;19923;-60
2022/01/21 03:52:55;;;;;;;;;;;;;;;8.12;65.16;103521.56;7356458;19;19918;-60
2022/01/21 03:55:20;;;;;;;;;;;;;;;8.11;65.04;103519.78;7362639;19;19925;-60
2022/01/21 03:57:54;;;;;;;;;;;;;;;8.11;65.13;103524.97;7136904;19;10000359;-60
2022/01/21 04:00:21;;;;;;;;;;;;;;;8.10;65.25;103518.00;1723379;19;10001256;-60
2022/01/21 04:02:46;;;;;;;;;;;;;;;8.09;65.10;103511.06;7365982;19;19919;-60
2022/01/21 04:05:12;;;;;;;;;;;;;;;8.09;65.32;103517.13;7356048;19;19934;-59
2022/01/21 04:07:37;;;;;;;;;;;;;;;8.09;65.35;103518.84;7359480;19;20589;-60
2022/01/21 04:10:03;;;;;;;;;;;;;;;8.07;65.09;103519.69;7361278;19;19927;-60
2022/01/21 04:12:28;;;;;;;;;;;;;;;8.07;65.10;103508.41;7364125;19;19918;-60
2022/01/21 04:14:56;;;;;;;;;;;;;;;8.06;65.32;103517.94;7362017;19;19927;-60
2022/01/21 04:17:23;;;;;;;;;;;;;;;8.06;65.50;103523.13;7367173;19;19930;-60
2022/01/21 04:19:48;;;;;;;;;;;;;;;8.04;65.46;103524.78;7363840;19;19931;-60
2022/01/21 04:22:13;;;;;;;;;;;;;;;8.04;65.38;103514.38;7376691;19;19915;-60
2022/01/21 04:24:39;;;;;;;;;;;;;;;8.03;65.55;103510.00;7373066;19;19919;-61
2022/01/21 04:27:05;;;;;;;;;;;;;;;8.03;65.21;103516.94;7376459;19;20347;-59
2022/01/21 04:29:30;;;;;;;;;;;;;;;8.02;65.18;103525.59;7370356;19;19923;-60
2022/01/21 04:31:55;;;;;;;;;;;;;;;8.01;65.26;103524.72;7369462;19;19925;-60
2022/01/21 04:34:21;;;;;;;;;;;;;;;8.00;65.58;103522.91;7369459;19;19947;-60
2022/01/21 04:36:46;;;;;;;;;;;;;;;8.00;65.57;103522.91;7371313;19;19954;-60
2022/01/21 04:39:18;;;;;;;;;;;;;;;8.00;65.40;103520.31;7363414;19;19919;-60
2022/01/21 04:49:41;;;;;;;;;;;;;;;8.01;65.52;103524.72;7365325;19;19936;-59
2022/01/21 04:52:06;;;;;;;;;;;;;;;8.01;65.37;103539.44;7369867;19;19915;-60
2022/01/21 04:54:32;;;;;;;;;;;;;;;8.01;65.55;103540.31;7375212;19;20717;-60
2022/01/21 04:56:58;;;;;;;;;;;;;;;8.01;65.72;103537.72;7375730;19;19922;-60
2022/01/21 04:59:23;;;;;;;;;;;;;;;8.01;65.70;103535.13;7371272;19;20726;-61
2022/01/21 05:01:48;;;;;;;;;;;;;;;8.01;65.75;103539.44;7367335;19;19918;-60
2022/01/21 05:04:14;;;;;;;;;;;;;;;8.00;65.43;103543.72;7378378;19;19929;-59
2022/01/21 05:06:40;;;;;;;;;;;;;;;8.00;65.78;103537.66;7373054;19;19919;-60
2022/01/21 05:09:06;;;;;;;;;;;;;;;7.99;65.49;103541.09;7378185;19;19922;-61
2022/01/21 05:11:36;;;;;;;;;;;;;;;7.99;65.66;103538.47;7376667;19;19927;-59
2022/01/21 05:14:13;;;;;;;;;;;;;;;7.98;65.84;103545.41;7374289;19;19943;-60
2022/01/21 05:16:45;;;;;;;;;;;;;;;7.98;65.73;103550.63;7378006;19;19911;-60
2022/01/21 05:19:15;;;;;;;;;;;;;;;7.97;65.60;103543.66;7373119;19;19931;-60
2022/01/21 05:21:41;;;;;;;;;;;;;;;7.98;65.52;103542.81;7376529;19;19944;-58
2022/01/21 05:24:06;;;;;;;;;;;;;;;7.98;65.92;103554.94;7375782;19;19930;-60
2022/01/21 05:26:37;;;;;;;;;;;;;;;7.96;65.98;103552.28;7378175;19;19922;-60
2022/01/21 05:29:03;;;;;;;;;;;;;;;7.97;65.67;103553.19;7377596;19;19927;-60
2022/01/21 05:31:28;;;;;;;;;;;;;;;7.96;65.81;103552.28;7374988;19;19919;-61
2022/01/21 05:33:53;;;;;;;;;;;;;;;7.96;65.69;103557.50;7374159;19;19923;-59
2022/01/21 05:36:19;;;;;;;;;;;;;;;7.95;66.06;103550.50;7374763;19;19918;-60
2022/01/21 05:38:44;;;;;;;;;;;;;;;7.95;65.90;103547.00;7376965;19;19922;-58
2022/01/21 05:41:09;;;;;;;;;;;;;;;7.94;66.04;103558.25;7375328;19;19939;-60
2022/01/21 05:43:35;;;;;;;;;;;;;;;7.92;65.90;103547.81;7365527;19;19910;-60
2022/01/21 05:48:44;;;;;;;;;;;;;;;7.91;66.06;103548.66;7368241;19;19943;-60
2022/01/21 05:51:09;;;;;;;;;;;;;;;7.91;66.09;103548.66;7368840;19;20362;-60
2022/01/21 05:53:35;;;;;;;;;;;;;;;7.90;65.97;103549.47;7330064;19;37153;-60
2022/01/21 05:56:02;;;;;;;;;;;;;;;7.90;65.87;103546.84;1107998;19;10002054;-60
2022/01/21 05:58:27;;;;;;;;;;;;;;;7.90;66.34;103545.97;7363305;19;20506;-60
2022/01/21 06:00:52;;;;;;;;;;;;;;;7.89;65.99;103560.72;7368418;19;19926;-59
2022/01/21 06:03:18;;;;;;;;;;;;;;;7.89;66.37;103552.91;7370637;19;19919;-62
2022/01/21 06:05:43;;;;;;;;;;;;;;;7.89;65.88;103554.63;7361536;19;19923;-60
2022/01/21 06:08:08;;;;;;;;;;;;;;;7.88;66.02;103556.34;7369599;19;20032;-59
2022/01/21 06:10:34;;;;;;;;;;;;;;;7.87;66.03;103554.56;7366728;19;20380;-60
2022/01/21 06:12:59;;;;;;;;;;;;;;;7.88;66.42;103558.06;7361270;19;19927;-60
2022/01/21 06:15:24;;;;;;;;;;;;;;;7.87;66.40;103562.38;7366505;19;20499;-60
2022/01/21 06:17:50;;;;;;;;;;;;;;;7.88;66.07;103569.34;7366999;19;19923;-59
2022/01/21 06:20:15;;;;;;;;;;;;;;;7.88;66.50;103573.66;7371924;19;19926;-60
2022/01/21 06:22:40;;;;;;;;;;;;;;;7.86;66.28;103571.03;7375179;19;19946;-60
2022/01/21 06:25:06;;;;;;;;;;;;;;;7.87;66.24;103578.00;7373894;19;20634;-60
2022/01/21 06:27:33;;;;;;;;;;;;;;;7.86;66.25;103573.63;7362162;19;19923;-60
2022/01/21 06:29:58;;;;;;;;;;;;;;;7.85;66.51;103582.25;7366818;19;19927;-60
2022/01/21 06:32:25;;;;;;;;;;;;;;;7.85;66.17;103577.03;7359119;19;19979;-60
2022/01/21 06:34:50;;;;;;;;;;;;;;;7.84;66.24;103577.00;7363408;19;20032;-60
2022/01/21 06:37:16;;;;;;;;;;;;;;;7.83;66.26;103581.31;7365199;19;20313;-60
2022/01/21 06:39:41;;;;;;;;;;;;;;;7.82;66.63;103579.56;7367575;19;19927;-60
2022/01/21 06:42:06;;;;;;;;;;;;;;;7.81;66.20;103577.78;7365327;19;20515;-61
2022/01/21 06:44:32;;;;;;;;;;;;;;;7.80;66.45;103581.19;7365785;19;19983;-59
2022/01/21 06:46:57;;;;;;;;;;;;;;;7.78;66.26;103567.25;7365142;19;20344;-60
2022/01/21 06:49:22;;;;;;;;;;;;;;;7.78;66.53;103582.88;7364891;19;19919;-58
2022/01/21 06:51:47;;;;;;;;;;;;;;;7.77;66.49;103575.91;7366778;19;19933;-60
2022/01/21 06:54:13;;;;;;;;;;;;;;;7.75;66.45;103581.03;7366553;19;19927;-60
2022/01/21 06:56:38;;;;;;;;;;;;;;;7.73;66.30;103579.22;7367664;19;19919;-60
2022/01/21 06:59:04;;;;;;;;;;;;;;;7.73;66.35;103580.09;7364238;19;19919;-58
2022/01/21 07:01:30;;;;;;;;;;;;;;;7.73;66.58;103579.22;7365116;19;19922;-60
2022/01/21 07:03:55;;;;;;;;;;;;;;;7.71;66.65;103573.09;7363417;19;19935;-60
2022/01/21 07:06:21;;;;;;;;;;;;;;;7.72;66.82;103573.13;7368573;19;19926;-60
2022/01/21 07:08:47;;;;;;;;;;;;;;;7.73;66.80;103563.63;7355618;19;19940;-60
2022/01/21 07:11:12;;;;;;;;;;;;;;;7.74;66.91;103557.56;7366615;19;19919;-60
2022/01/21 07:13:38;;;;;;;;;;;;;;;7.74;66.73;103557.56;7364751;19;19922;-59
2022/01/21 07:16:03;;;;;;;;;;;;;;;7.75;66.71;103561.94;7369620;19;19939;-61
2022/01/21 07:18:28;;;;;;;;;;;;;;;7.76;66.81;103556.81;7373547;19;19941;-60
2022/01/21 07:20:54;;;;;;;;;;;;;;;7.78;66.79;103554.25;7372156;19;19918;-60
2022/01/21 07:23:19;;;;;;;;;;;;;;;7.79;66.67;103553.41;7365477;19;19915;-60
2022/01/21 07:25:45;;;;;;;;;;;;;;;7.78;66.71;103557.75;7365927;19;19926;-60
2022/01/21 07:28:10;;;;;;;;;;;;;;;7.78;67.00;103556.84;7359877;19;19918;-59
2022/01/21 07:30:35;;;;;;;;;;;;;;;7.79;66.85;103553.41;7366578;19;19919;-59
2022/01/21 07:33:01;;;;;;;;;;;;;;;7.79;66.55;103558.63;7366582;19;19937;-60
2022/01/21 07:35:26;;;;;;;;;;;;;;;7.78;66.58;103555.13;7363122;19;19918;-60
2022/01/21 07:37:52;;;;;;;;;;;;;;;7.79;67.00;103558.63;7365352;19;19918;-60
2022/01/21 07:40:17;;;;;;;;;;;;;;;7.79;66.56;103554.31;7363048;19;20380;-61
2022/01/21 07:42:42;;;;;;;;;;;;;;;7.79;66.86;103558.63;7358220;19;20373;-60
2022/01/21 07:45:21;;;;;;;;;;;;;;;7.72;66.93;103556.66;4052542;19;10001207;-60
2022/01/21 07:47:46;;;;;;;;;;;;;;;7.79;66.77;103563.81;5023123;19;10001270;-60
2022/01/21 07:50:11;;;;;;;;;;;;;;;7.78;66.63;103552.53;7362337;19;19923;-60
2022/01/21 07:52:37;;;;;;;;;;;;;;;7.78;66.59;103560.34;7366157;19;19911;-59
2022/01/21 07:55:02;;;;;;;;;;;;;;;7.76;66.92;103564.63;7337279;19;19933;-60
2022/01/21 07:57:28;;;;;;;;;;;;;;;7.77;66.55;103560.28;7362044;19;19918;-60
2022/01/21 07:59:53;;;;;;;;;;;;;;;7.76;66.88;103554.22;7363727;19;20595;-59
2022/01/21 08:02:19;;;;;;;;;;;;;;;7.76;66.79;103555.94;7369161;19;19922;-59
2022/01/21 08:04:44;;;;;;;;;;;;;;;7.75;66.66;103561.94;7371205;19;19945;-60
2022/01/21 08:07:10;;;;;;;;;;;;;;;7.75;66.68;103567.13;7373175;19;19911;-60
2022/01/21 08:09:35;;;;;;;;;;;;;;;7.74;66.56;103570.59;7364503;19;19915;-60
2022/01/21 08:12:01;;;;;;;;;;;;;;;7.73;66.97;103572.31;7364643;19;20593;-60
2022/01/21 08:14:26;;;;;;;;;;;;;;;7.72;66.56;103567.94;7359801;19;19915;-60
2022/01/21 08:16:53;;;;;;;;;;;;;;;7.71;66.52;103570.50;7361499;19;19918;-60
2022/01/21 08:19:18;;;;;;;;;;;;;;;7.71;66.66;103570.50;7360447;19;19931;-59
2022/01/21 08:21:44;;;;;;;;;;;;;;;7.71;66.64;103580.91;7356606;19;19940;-60
2022/01/21 08:24:09;;;;;;;;;;;;;;;7.70;66.89;103573.91;7352433;19;20679;-59
2022/01/21 08:26:35;;;;;;;;;;;;;;;7.70;66.69;103573.91;7364560;19;19922;-59
2022/01/21 08:29:02;;;;;;;;;;;;;;;7.69;67.10;103577.34;7363186;19;19935;-60
2022/01/21 08:31:27;;;;;;;;;;;;;;;7.69;67.06;103577.34;7358898;19;19935;-60
2022/01/21 08:33:53;;;;;;;;;;;;;;;7.69;66.76;103580.81;7359332;19;19910;-60
2022/01/21 08:36:19;;;;;;;;;;;;;;;7.69;66.97;103572.13;7363124;19;19944;-60
2022/01/21 08:38:44;;;;;;;;;;;;;;;7.69;66.80;103582.53;7363766;19;19919;-61
2022/01/21 08:41:09;;;;;;;;;;;;;;;7.69;66.88;103574.75;7362617;19;19972;-60
2022/01/21 08:43:36;;;;;;;;;;;;;;;7.70;66.84;103573.91;7360229;19;20286;-60
2022/01/21 08:46:02;;;;;;;;;;;;;;;7.70;66.87;103568.69;7354937;19;20494;-60
2022/01/21 08:48:27;;;;;;;;;;;;;;;7.70;67.04;103573.91;7361836;19;19915;-60
2022/01/21 08:50:52;;;;;;;;;;;;;;;7.71;67.28;103573.09;7359760;19;19923;-60
2022/01/21 08:53:36;;;;;;;;;;;;;;;7.73;67.20;103576.63;7355579;19;19923;-61
2022/01/21 08:56:02;;;;;;;;;;;;;;;7.72;67.15;103583.53;7347945;19;20002;-59
2022/01/21 08:58:28;;;;;;;;;;;;;;;7.73;66.90;103582.72;7354967;19;21113;-60
2022/01/21 09:00:53;;;;;;;;;;;;;;;7.74;66.99;103586.19;7362508;19;20470;-60
2022/01/21 09:03:18;;;;;;;;;;;;;;;7.74;66.91;103586.19;7359476;19;19936;-60
2022/01/21 09:05:48;;;;;;;;;;;;;;;7.75;67.27;103582.75;7347349;19;19926;-60
2022/01/21 09:08:15;;;;;;;;;;;;;;;7.75;67.14;103582.75;7365947;19;19917;-60
2022/01/21 09:10:40;;;;;;;;;;;;;;;7.76;67.36;103580.22;7358534;19;19918;-60
2022/01/21 09:13:05;;;;;;;;;;;;;;;7.78;67.32;103575.06;7364997;19;19936;-59
2022/01/21 09:15:33;;;;;;;;;;;;;;;7.79;66.98;103584.63;7371501;19;20268;-60
2022/01/21 09:18:03;;;;;;;;;;;;;;;7.82;67.31;103578.66;7355601;19;19945;-60
2022/01/21 09:20:29;;;;;;;;;;;;;;;7.83;67.39;103581.31;7369350;19;19915;-60
2022/01/21 09:22:54;;;;;;;;;;;;;;;7.84;66.89;103566.59;7361245;19;19919;-60
2022/01/21 09:25:19;;;;;;;;;;;;;;;7.85;67.09;103569.22;7365218;19;19930;-59
2022/01/21 09:27:44;;;;;;;;;;;;;;;7.87;66.95;103571.91;7363711;19;19918;-60
2022/01/21 09:30:10;;;;;;;;;;;;;;;7.88;67.23;103577.16;7370572;19;19929;-60
2022/01/21 09:32:35;;;;;;;;;;;;;;;7.89;66.94;103575.44;7365697;19;19957;-59
2022/01/21 09:35:01;;;;;;;;;;;;;;;7.89;67.01;103576.31;7369098;19;19927;-60
2022/01/21 09:37:26;;;;;;;;;;;;;;;7.90;67.03;103562.47;7369399;19;19914;-60
2022/01/21 09:39:51;;;;;;;;;;;;;;;7.92;66.99;103566.03;7367775;19;19915;-60
2022/01/21 09:42:17;;;;;;;;;;;;;;;7.94;66.86;103569.56;7367038;19;19921;-60
2022/01/21 09:44:44;;;;;;;;;;;;;;;7.96;67.02;103567.03;7361564;19;19923;-60
2022/01/21 09:47:11;;;;;;;;;;;;;;;7.96;67.19;103567.91;7373522;19;19986;-60
2022/01/21 09:49:41;;;;;;;;;;;;;;;7.98;67.34;103558.41;7372480;19;19919;-59
2022/01/21 09:52:07;;;;;;;;;;;;;;;8.00;67.25;103554.13;7367191;19;19932;-60
2022/01/21 09:54:34;;;;;;;;;;;;;;;8.02;66.95;103564.63;7364228;19;21527;-59
2022/01/21 09:57:00;;;;;;;;;;;;;;;8.05;66.85;103563.00;7363504;19;19919;-60
2022/01/21 09:59:27;;;;;;;;;;;;;;;8.07;67.15;103557.84;7367660;19;19921;-60
2022/01/21 10:01:54;;;;;;;;;;;;;;;8.07;66.92;103558.75;7365455;19;19918;-60
2022/01/21 10:04:24;;;;;;;;;;;;;;;7.97;66.82;103553.19;1126736;19;10002002;-60
2022/01/21 10:06:50;;;;;;;;;;;;;;;8.10;66.89;103565.75;7363822;19;19943;-60
2022/01/21 10:09:16;;;;;;;;;;;;;;;8.10;67.18;103554.44;7368188;19;19918;-59
2022/01/21 10:11:48;;;;;;;;;;;;;;;8.11;67.05;103562.34;7363781;19;19907;-60
2022/01/21 10:14:13;;;;;;;;;;;;;;;8.12;67.04;103560.63;7364825;19;19915;-60
2022/01/21 10:16:38;;;;;;;;;;;;;;;8.13;66.86;103554.56;7367049;19;19926;-60
2022/01/21 10:19:13;;;;;;;;;;;;;;;8.13;67.31;103570.19;7363784;19;19922;-60
2022/01/21 10:21:42;;;;;;;;;;;;;;;8.14;67.29;103556.34;7364176;19;19930;-60
2022/01/21 10:24:08;;;;;;;;;;;;;;;8.15;67.04;103558.09;7360741;19;22024;-60
2022/01/21 10:26:33;;;;;;;;;;;;;;;8.15;66.99;103553.78;7369905;19;19974;-61
2022/01/21 10:28:59;;;;;;;;;;;;;;;8.18;67.06;103558.22;7368466;19;19931;-60
2022/01/21 10:31:27;;;;;;;;;;;;;;;8.18;66.89;103553.88;7368070;19;19919;-60
2022/01/21 10:33:53;;;;;;;;;;;;;;;8.21;67.21;103550.47;7365593;19;19954;-61
2022/01/21 10:36:28;;;;;;;;;;;;;;;8.21;67.26;103550.47;7375310;19;19931;-60
2022/01/21 10:38:57;;;;;;;;;;;;;;;8.24;67.14;103555.81;7374018;19;19918;-60
2022/01/21 10:41:29;;;;;;;;;;;;;;;8.25;67.31;103554.97;7359697;19;20472;-61
2022/01/21 10:44:05;;;;;;;;;;;;;;;8.26;67.07;103567.13;7366796;19;19919;-60
2022/01/21 10:46:30;;;;;;;;;;;;;;;8.28;66.85;103560.28;7363489;19;20513;-60
2022/01/21 10:49:00;;;;;;;;;;;;;;;8.28;67.03;103560.28;7363860;19;19915;-59
2022/01/21 10:51:27;;;;;;;;;;;;;;;8.31;67.07;103566.47;7364769;19;19919;-60
2022/01/21 10:53:53;;;;;;;;;;;;;;;8.34;66.87;103565.69;7363555;19;19947;-59
2022/01/21 10:56:19;;;;;;;;;;;;;;;8.36;67.27;103577.03;7360094;19;19926;-60
2022/01/21 10:58:46;;;;;;;;;;;;;;;8.38;66.84;103566.69;7367330;19;19922;-60
2022/01/21 11:01:16;;;;;;;;;;;;;;;8.40;67.07;103565.03;7356264;19;20416;-60
2022/01/21 11:03:59;;;;;;;;;;;;;;;8.42;66.98;103569.47;7363026;19;20267;-60
2022/01/21 11:06:26;;;;;;;;;;;;;;;8.45;66.86;103569.53;7364043;19;19913;-59
2022/01/21 11:09:11;;;;;;;;;;;;;;;8.46;66.75;103571.31;7361055;19;20471;-61
2022/01/21 11:11:36;;;;;;;;;;;;;;;8.51;66.74;103577.53;7364941;19;19976;-59
2022/01/21 11:14:08;;;;;;;;;;;;;;;8.54;66.93;103580.25;7362513;19;19930;-60
2022/01/21 11:16:34;;;;;;;;;;;;;;;8.53;66.67;103570.69;7364223;19;19950;-61
2022/01/21 11:19:12;;;;;;;;;;;;;;;8.62;66.80;103577.91;7359102;19;19915;-59
2022/01/21 11:21:39;;;;;;;;;;;;;;;8.64;66.67;103571.00;7365363;19;19925;-60
2022/01/21 11:24:06;;;;;;;;;;;;;;;8.67;66.75;103565.00;7356359;19;20364;-60
2022/01/21 11:26:31;;;;;;;;;;;;;;;8.72;66.97;103563.44;7367755;19;19919;-60
2022/01/21 11:28:56;;;;;;;;;;;;;;;8.76;66.72;103563.56;7363912;19;20367;-60
2022/01/21 11:31:23;;;;;;;;;;;;;;;8.81;66.90;103554.16;7362084;19;19942;-60
2022/01/21 11:33:49;;;;;;;;;;;;;;;8.87;66.92;103558.72;7359450;19;19915;-59
2022/01/21 11:36:15;;;;;;;;;;;;;;;8.93;66.81;103558.88;7363880;19;19998;-61
2022/01/21 11:38:43;;;;;;;;;;;;;;;8.99;66.92;103564.28;7359381;19;19927;-60
2022/01/21 11:41:09;;;;;;;;;;;;;;;9.05;66.98;103559.22;7360618;19;20357;-61
2022/01/21 11:43:35;;;;;;;;;;;;;;;9.10;66.95;103552.44;7359190;19;19915;-60
2022/01/21 11:50:54;;;;;;;;;;;;;;;9.19;66.53;103551.81;1106607;19;10001217;-60
2022/01/21 11:53:49;;;;;;;;;;;;;;;9.22;66.20;103556.22;7359435;19;20311;-61
2022/01/21 11:56:34;;;;;;;;;;;;;;;9.22;66.41;103551.00;7261475;19;2004134;-60
2022/01/21 11:59:11;;;;;;;;;;;;;;;9.25;66.46;103545.91;7349118;19;19923;-61
2022/01/21 12:01:46;;;;;;;;;;;;;;;9.25;66.31;103546.78;7363156;19;22293;-60
2022/01/21 12:04:12;;;;;;;;;;;;;;;9.27;66.33;103544.19;7357220;19;19911;-60
2022/01/21 12:06:37;;;;;;;;;;;;;;;9.29;66.15;103539.94;7363411;19;19919;-61
2022/01/21 12:09:04;;;;;;;;;;;;;;;9.31;66.11;103540.84;7361345;19;19927;-61
2022/01/21 12:11:35;;;;;;;;;;;;;;;9.31;66.31;103525.19;7363393;19;19919;-60
2022/01/21 12:14:04;;;;;;;;;;;;;;;9.32;66.21;103527.84;7358474;19;20356;-60
2022/01/21 12:16:52;;;;;;;;;;;;;;;9.33;66.06;103526.16;7368873;19;20328;-61
2022/01/21 12:19:26;;;;;;;;;;;;;;;9.32;66.24;103526.97;7357038;19;20339;-60
2022/01/21 12:21:53;;;;;;;;;;;;;;;9.32;66.16;103516.53;7360255;19;19915;-60
2022/01/21 12:24:38;;;;;;;;;;;;;;;9.31;66.20;103504.34;7357984;19;19931;-59
2022/01/21 12:27:09;;;;;;;;;;;;;;;9.31;66.20;103504.34;7359926;19;19922;-60
2022/01/21 12:29:34;;;;;;;;;;;;;;;9.31;66.21;103514.78;7360369;19;19919;-60
2022/01/21 12:32:14;;;;;;;;;;;;;;;9.31;65.71;103501.72;7360398;19;19933;-60
2022/01/21 12:35:00;;;;;;;;;;;;;;;9.32;66.10;103498.28;7352299;19;19922;-60
2022/01/21 12:37:39;;;;;;;;;;;;;;;9.33;66.27;103497.47;7350901;19;19940;-60
2022/01/21 12:40:04;;;;;;;;;;;;;;;9.34;66.23;103499.22;7357701;19;19915;-60
2022/01/21 12:42:37;;;;;;;;;;;;;;;9.37;66.31;103499.28;7358929;19;19919;-61
2022/01/21 12:45:08;;;;;;;;;;;;;;;9.39;65.84;103497.63;7364754;19;19918;-61
2022/01/21 12:47:34;;;;;;;;;;;;;;;9.41;66.23;103495.94;7360618;19;19918;-61
2022/01/21 12:50:12;;;;;;;;;;;;;;;9.43;65.84;103493.34;7364769;19;19911;-61
2022/01/21 12:52:54;;;;;;;;;;;;;;;9.44;66.12;103496.00;7361048;19;19930;-60
2022/01/21 12:58:09;;;;;;;;;;;;;;;9.49;65.83;103494.41;7353609;19;19922;-60
2022/01/21 13:00:36;;;;;;;;;;;;;;;9.50;65.93;103479.66;7351964;19;19918;-61
2022/01/21 13:03:07;;;;;;;;;;;;;;;9.51;65.86;103484.88;7354577;19;20004;-59
2022/01/21 13:05:38;;;;;;;;;;;;;;;9.54;65.86;103481.50;7367029;19;19955;-60
2022/01/21 13:08:12;;;;;;;;;;;;;;;9.56;65.94;103485.91;7370155;19;19955;-60
2022/01/21 13:10:38;;;;;;;;;;;;;;;9.58;65.97;103479.00;7372876;19;19926;-60
2022/01/21 13:15:40;;;;;;;;;;;;;;;9.62;66.21;103467.78;7371212;19;19923;-60
2022/01/21 13:18:06;;;;;;;;;;;;;;;9.64;66.14;103480.00;7368197;19;19923;-60
2022/01/21 13:20:33;;;;;;;;;;;;;;;9.63;65.63;103476.53;7365308;19;19911;-61
2022/01/21 13:22:59;;;;;;;;;;;;;;;9.62;65.59;103480.81;7363906;19;19936;-59
2022/01/21 13:25:25;;;;;;;;;;;;;;;9.61;65.92;103481.69;7365592;19;19915;-61
2022/01/21 13:27:52;;;;;;;;;;;;;;;9.59;65.72;103472.94;7357566;19;19928;-61
2022/01/21 13:30:22;;;;;;;;;;;;;;;9.59;65.68;103469.44;7365582;19;20066;-58
2022/01/21 13:32:56;;;;;;;;;;;;;;;9.59;65.61;103475.56;7361373;19;19915;-62
2022/01/21 13:35:23;;;;;;;;;;;;;;;9.58;65.76;103463.34;7357567;19;19972;-61
2022/01/21 13:38:04;;;;;;;;;;;;;;;9.59;65.82;103464.25;7363108;19;19930;-61
2022/01/21 13:40:34;;;;;;;;;;;;;;;9.59;65.65;103459.91;7350361;19;19932;-61
2022/01/21 13:43:08;;;;;;;;;;;;;;;9.61;65.62;103457.31;7353637;19;19918;-61
2022/01/21 13:45:34;;;;;;;;;;;;;;;9.61;65.83;103452.97;7364996;19;19926;-59